sensor_id;sensor_type;location;lat;lon;timestamp;pressure;altitude;pressure_sealevel;temperature;humidity
63351;BME280;54336;51.058;17.040;2022-07-06T00:04:06;100373.72;;;17.73;100.00
63351;BME280;54336;51.058;17.040;2022-07-06T00:09:59;100387.94;;;17.72;100.00
63351;BME280;54336;51.058;17.040;2022-07-06T00:15:51;100390.66;;;17.68;100.00
63351;BME280;54336;51.058;17.040;2022-07-06T00:21:44;100395.34;;;17.54;100.00
63351;BME280;54336;51.058;17.040;2022-07-06T00:27:36;100395.31;;;17.47;100.00
63351;BME280;54336;51.058;17.040;2022-07-06T00:33:29;100391.34;;;17.40;100.00
63351;BME280;54336;51.058;17.040;2022-07-06T00:39:21;100388.22;;;17.42;100.00
63351;BME280;54336;51.058;17.040;2022-07-06T00:45:17;100386.63;;;17.48;100.00
63351;BME280;54336;51.058;17.040;2022-07-06T00:51:10;100386.66;;;17.52;100.00
63351;BME280;54336;51.058;17.040;2022-07-06T00:57:03;100378.78;;;17.54;100.00
63351;BME280;54336;51.058;17.040;2022-07-06T01:02:56;100390.59;;;17.51;100.00
63351;BME280;54336;51.058;17.040;2022-07-06T01:08:50;100384.25;;;17.47;100.00
63351;BME280;54336;51.058;17.040;2022-07-06T01:14:43;100380.34;;;17.51;100.00
63351;BME280;54336;51.058;17.040;2022-07-06T01:20:37;100381.13;;;17.48;100.00
63351;BME280;54336;51.058;17.040;2022-07-06T01:26:30;100370.88;;;17.49;100.00
63351;BME280;54336;51.058;17.040;2022-07-06T01:32:24;100378.00;;;17.50;100.00
63351;BME280;54336;51.058;17.040;2022-07-06T01:38:18;100372.03;;;17.48;100.00
63351;BME280;54336;51.058;17.040;2022-07-06T01:44:12;100369.72;;;17.50;100.00
63351;BME280;54336;51.058;17.040;2022-07-06T01:50:07;100365.78;;;17.51;100.00
63351;BME280;54336;51.058;17.040;2022-07-06T01:56:04;100359.81;;;17.49;100.00
63351;BME280;54336;51.058;17.040;2022-07-06T02:01:57;100367.72;;;17.47;100.00
63351;BME280;54336;51.058;17.040;2022-07-06T02:07:50;100381.47;;;17.39;100.00
63351;BME280;54336;51.058;17.040;2022-07-06T02:13:43;100384.22;;;17.32;100.00
63351;BME280;54336;51.058;17.040;2022-07-06T02:19:36;100385.84;;;17.40;100.00
63351;BME280;54336;51.058;17.040;2022-07-06T02:25:29;100365.78;;;17.51;100.00
63351;BME280;54336;51.058;17.040;2022-07-06T02:31:22;100366.59;;;17.62;100.00
63351;BME280;54336;51.058;17.040;2022-07-06T02:37:16;100377.22;;;17.63;100.00
63351;BME280;54336;51.058;17.040;2022-07-06T02:43:09;100379.09;;;17.38;100.00
63351;BME280;54336;51.058;17.040;2022-07-06T02:49:04;100382.66;;;17.35;100.00
63351;BME280;54336;51.058;17.040;2022-07-06T02:54:56;100377.09;;;17.31;100.00
63351;BME280;54336;51.058;17.040;2022-07-06T03:00:49;100364.19;;;17.50;100.00
63351;BME280;54336;51.058;17.040;2022-07-06T03:06:42;100376.50;;;17.73;100.00
63351;BME280;54336;51.058;17.040;2022-07-06T03:12:35;100365.53;;;18.16;100.00
63351;BME280;54336;51.058;17.040;2022-07-06T03:18:28;100366.31;;;18.77;100.00
63351;BME280;54336;51.058;17.040;2022-07-06T03:24:22;100385.25;;;18.47;100.00
63351;BME280;54336;51.058;17.040;2022-07-06T03:30:15;100388.41;;;18.45;100.00
63351;BME280;54336;51.058;17.040;2022-07-06T03:36:13;100413.69;;;18.47;100.00
63351;BME280;54336;51.058;17.040;2022-07-06T03:42:06;100432.25;;;18.50;100.00
63351;BME280;54336;51.058;17.040;2022-07-06T03:47:59;100434.22;;;18.46;100.00
63351;BME280;54336;51.058;17.040;2022-07-06T03:53:52;100441.34;;;18.87;100.00
63351;BME280;54336;51.058;17.040;2022-07-06T03:59:45;100434.53;;;19.23;100.00
63351;BME280;54336;51.058;17.040;2022-07-06T04:05:38;100459.81;;;19.39;100.00
63351;BME280;54336;51.058;17.040;2022-07-06T04:11:31;100458.53;;;19.73;100.00
63351;BME280;54336;51.058;17.040;2022-07-06T04:17:24;100473.84;;;20.02;100.00
63351;BME280;54336;51.058;17.040;2022-07-06T04:23:35;100478.31;;;20.48;100.00
63351;BME280;54336;51.058;17.040;2022-07-06T04:29:29;100492.22;;;20.44;100.00
63351;BME280;54336;51.058;17.040;2022-07-06T04:35:22;100495.03;;;20.30;100.00
63351;BME280;54336;51.058;17.040;2022-07-06T04:41:17;100509.06;;;19.98;100.00
63351;BME280;54336;51.058;17.040;2022-07-06T04:47:10;100506.88;;;19.32;100.00
63351;BME280;54336;51.058;17.040;2022-07-06T04:53:04;100516.78;;;18.73;100.00
63351;BME280;54336;51.058;17.040;2022-07-06T04:58:58;100528.88;;;18.11;100.00
63351;BME280;54336;51.058;17.040;2022-07-06T05:04:52;100530.75;;;17.86;100.00
63351;BME280;54336;51.058;17.040;2022-07-06T05:10:44;100532.31;;;17.83;100.00
63351;BME280;54336;51.058;17.040;2022-07-06T05:16:37;100536.66;;;17.84;100.00
63351;BME280;54336;51.058;17.040;2022-07-06T05:22:30;100534.72;;;17.99;100.00
63351;BME280;54336;51.058;17.040;2022-07-06T05:28:23;100521.41;;;18.22;100.00
63351;BME280;54336;51.058;17.040;2022-07-06T05:34:16;100512.41;;;18.50;100.00
63351;BME280;54336;51.058;17.040;2022-07-06T05:40:10;100501.34;;;18.65;100.00
63351;BME280;54336;51.058;17.040;2022-07-06T05:46:04;100487.56;;;18.75;100.00
63351;BME280;54336;51.058;17.040;2022-07-06T05:51:59;100501.00;;;18.84;100.00
63351;BME280;54336;51.058;17.040;2022-07-06T05:57:52;100476.09;;;18.98;100.00
63351;BME280;54336;51.058;17.040;2022-07-06T06:03:59;100463.47;;;18.87;100.00
63351;BME280;54336;51.058;17.040;2022-07-06T06:10:13;100440.41;;;19.57;100.00
63351;BME280;54336;51.058;17.040;2022-07-06T06:16:09;100448.00;;;18.28;100.00
63351;BME280;54336;51.058;17.040;2022-07-06T06:22:14;100455.13;;;18.40;100.00
63351;BME280;54336;51.058;17.040;2022-07-06T06:28:09;100474.09;;;19.17;100.00
63351;BME280;54336;51.058;17.040;2022-07-06T06:34:01;100522.66;;;19.46;100.00
63351;BME280;54336;51.058;17.040;2022-07-06T06:39:54;100526.47;;;19.99;100.00
63351;BME280;54336;51.058;17.040;2022-07-06T06:45:46;100532.09;;;20.58;100.00
63351;BME280;54336;51.058;17.040;2022-07-06T06:51:39;100534.50;;;22.21;100.00
63351;BME280;54336;51.058;17.040;2022-07-06T06:57:31;100532.00;;;22.57;100.00
63351;BME280;54336;51.058;17.040;2022-07-06T07:03:24;100528.00;;;28.89;65.39
63351;BME280;54336;51.058;17.040;2022-07-06T07:09:16;100533.97;;;38.10;38.81
63351;BME280;54336;51.058;17.040;2022-07-06T07:15:09;100551.81;;;42.56;30.42
63351;BME280;54336;51.058;17.040;2022-07-06T07:21:02;100545.16;;;43.93;26.87
63351;BME280;54336;51.058;17.040;2022-07-06T07:26:55;100556.97;;;49.33;21.12
63351;BME280;54336;51.058;17.040;2022-07-06T07:32:49;100555.75;;;51.69;17.28
63351;BME280;54336;51.058;17.040;2022-07-06T07:38:42;100544.97;;;53.81;15.88
63351;BME280;54336;51.058;17.040;2022-07-06T07:44:34;100540.00;;;54.82;14.08
63351;BME280;54336;51.058;17.040;2022-07-06T07:50:27;100530.78;;;54.58;12.06
63351;BME280;54336;51.058;17.040;2022-07-06T07:56:21;100522.13;;;54.90;12.29
63351;BME280;54336;51.058;17.040;2022-07-06T08:02:14;100543.97;;;55.02;11.41
63351;BME280;54336;51.058;17.040;2022-07-06T08:08:07;100538.84;;;55.48;11.23
63351;BME280;54336;51.058;17.040;2022-07-06T08:14:00;100545.03;;;56.20;10.76
63351;BME280;54336;51.058;17.040;2022-07-06T08:19:53;100539.31;;;55.27;10.60
63351;BME280;54336;51.058;17.040;2022-07-06T08:25:46;100539.31;;;55.58;9.95
63351;BME280;54336;51.058;17.040;2022-07-06T08:31:39;100539.13;;;55.39;10.68
63351;BME280;54336;51.058;17.040;2022-07-06T08:37:49;100536.69;;;55.49;10.23
63351;BME280;54336;51.058;17.040;2022-07-06T08:43:43;100539.94;;;55.10;10.37
63351;BME280;54336;51.058;17.040;2022-07-06T08:49:36;100530.75;;;54.72;10.50
63351;BME280;54336;51.058;17.040;2022-07-06T08:55:29;100516.88;;;54.43;10.46
63351;BME280;54336;51.058;17.040;2022-07-06T09:01:22;100516.09;;;51.29;11.73
63351;BME280;54336;51.058;17.040;2022-07-06T09:07:15;100504.22;;;47.55;14.22
63351;BME280;54336;51.058;17.040;2022-07-06T09:13:28;100501.34;;;45.01;17.16
63351;BME280;54336;51.058;17.040;2022-07-06T09:19:22;100489.47;;;42.93;18.10
63351;BME280;54336;51.058;17.040;2022-07-06T09:25:15;100492.41;;;41.39;19.33
63351;BME280;54336;51.058;17.040;2022-07-06T09:31:09;100493.78;;;40.00;21.01
63351;BME280;54336;51.058;17.040;2022-07-06T09:37:07;100490.81;;;38.79;22.58
63351;BME280;54336;51.058;17.040;2022-07-06T09:43:11;100486.47;;;38.24;23.33
63351;BME280;54336;51.058;17.040;2022-07-06T09:49:06;100482.31;;;37.59;23.85
63351;BME280;54336;51.058;17.040;2022-07-06T09:54:59;100472.66;;;36.57;24.28
63351;BME280;54336;51.058;17.040;2022-07-06T10:00:51;100482.16;;;35.25;26.31
63351;BME280;54336;51.058;17.040;2022-07-06T10:06:46;100483.28;;;35.78;26.34
63351;BME280;54336;51.058;17.040;2022-07-06T10:12:40;100485.09;;;35.76;25.61
63351;BME280;54336;51.058;17.040;2022-07-06T10:18:34;100479.19;;;34.97;25.60
63351;BME280;54336;51.058;17.040;2022-07-06T10:24:29;100488.34;;;34.01;23.60
63351;BME280;54336;51.058;17.040;2022-07-06T10:30:24;100478.00;;;34.30;25.37
63351;BME280;54336;51.058;17.040;2022-07-06T10:36:17;100476.47;;;33.71;25.32
63351;BME280;54336;51.058;17.040;2022-07-06T10:42:39;100462.69;;;32.51;25.83
63351;BME280;54336;51.058;17.040;2022-07-06T10:48:35;100462.53;;;32.25;26.04
63351;BME280;54336;51.058;17.040;2022-07-06T10:54:39;100463.19;;;31.70;26.90
63351;BME280;54336;51.058;17.040;2022-07-06T11:00:49;100454.41;;;31.38;27.66
63351;BME280;54336;51.058;17.040;2022-07-06T11:06:45;100472.59;;;31.67;27.34
63351;BME280;54336;51.058;17.040;2022-07-06T11:12:44;100474.22;;;31.44;26.91
63351;BME280;54336;51.058;17.040;2022-07-06T11:18:41;100473.75;;;31.07;28.04
63351;BME280;54336;51.058;17.040;2022-07-06T11:24:37;100489.75;;;31.01;28.01
63351;BME280;54336;51.058;17.040;2022-07-06T11:30:29;100480.16;;;31.07;28.60
63351;BME280;54336;51.058;17.040;2022-07-06T11:36:25;100473.16;;;31.03;27.43
63351;BME280;54336;51.058;17.040;2022-07-06T11:42:26;100475.94;;;31.80;27.72
63351;BME280;54336;51.058;17.040;2022-07-06T11:48:18;100492.72;;;31.60;27.46
63351;BME280;54336;51.058;17.040;2022-07-06T11:54:16;100497.75;;;30.78;27.90
63351;BME280;54336;51.058;17.040;2022-07-06T12:00:10;100501.25;;;29.61;29.67
63351;BME280;54336;51.058;17.040;2022-07-06T12:06:12;100499.47;;;29.00;31.31
63351;BME280;54336;51.058;17.040;2022-07-06T12:12:05;100491.69;;;29.40;31.01
63351;BME280;54336;51.058;17.040;2022-07-06T12:18:00;100478.22;;;29.90;31.37
63351;BME280;54336;51.058;17.040;2022-07-06T12:23:53;100481.34;;;29.83;30.36
63351;BME280;54336;51.058;17.040;2022-07-06T12:29:48;100484.94;;;30.35;29.71
63351;BME280;54336;51.058;17.040;2022-07-06T12:35:42;100485.97;;;30.05;29.90
63351;BME280;54336;51.058;17.040;2022-07-06T12:41:36;100480.66;;;30.16;30.06
63351;BME280;54336;51.058;17.040;2022-07-06T12:47:28;100472.09;;;30.10;28.91
63351;BME280;54336;51.058;17.040;2022-07-06T12:53:25;100475.31;;;30.27;27.81
63351;BME280;54336;51.058;17.040;2022-07-06T12:59:22;100473.03;;;30.40;27.84
63351;BME280;54336;51.058;17.040;2022-07-06T13:05:15;100476.75;;;30.79;27.41
63351;BME280;54336;51.058;17.040;2022-07-06T13:11:09;100474.63;;;31.13;26.65
63351;BME280;54336;51.058;17.040;2022-07-06T13:17:02;100476.13;;;30.99;26.09
63351;BME280;54336;51.058;17.040;2022-07-06T13:22:55;100473.72;;;31.31;26.36
63351;BME280;54336;51.058;17.040;2022-07-06T13:28:47;100478.25;;;30.90;26.53
63351;BME280;54336;51.058;17.040;2022-07-06T13:34:40;100488.13;;;30.52;26.40
63351;BME280;54336;51.058;17.040;2022-07-06T13:40:32;100467.00;;;30.57;27.48
63351;BME280;54336;51.058;17.040;2022-07-06T13:46:28;100464.00;;;30.60;26.57
63351;BME280;54336;51.058;17.040;2022-07-06T13:52:21;100472.78;;;30.29;26.49
63351;BME280;54336;51.058;17.040;2022-07-06T13:58:13;100470.91;;;30.59;26.60
63351;BME280;54336;51.058;17.040;2022-07-06T14:04:06;100470.78;;;30.53;26.37
63351;BME280;54336;51.058;17.040;2022-07-06T14:09:59;100463.28;;;30.17;27.37
63351;BME280;54336;51.058;17.040;2022-07-06T14:16:18;100455.13;;;30.29;26.17
63351;BME280;54336;51.058;17.040;2022-07-06T14:22:11;100469.97;;;30.29;25.90
63351;BME280;54336;51.058;17.040;2022-07-06T14:28:03;100462.41;;;29.93;26.15
63351;BME280;54336;51.058;17.040;2022-07-06T14:33:56;100455.94;;;30.20;25.79
63351;BME280;54336;51.058;17.040;2022-07-06T14:39:49;100452.13;;;29.81;25.90
63351;BME280;54336;51.058;17.040;2022-07-06T14:45:44;100443.00;;;30.13;26.30
63351;BME280;54336;51.058;17.040;2022-07-06T14:51:37;100440.97;;;30.05;25.88
63351;BME280;54336;51.058;17.040;2022-07-06T14:57:30;100445.47;;;29.60;25.86
63351;BME280;54336;51.058;17.040;2022-07-06T15:03:23;100459.53;;;29.14;26.83
63351;BME280;54336;51.058;17.040;2022-07-06T15:09:16;100460.31;;;28.96;26.99
63351;BME280;54336;51.058;17.040;2022-07-06T15:15:10;100459.69;;;28.34;28.06
63351;BME280;54336;51.058;17.040;2022-07-06T15:21:23;100451.16;;;27.40;28.83
63351;BME280;54336;51.058;17.040;2022-07-06T15:27:16;100445.97;;;26.95;29.87
63351;BME280;54336;51.058;17.040;2022-07-06T15:33:09;100454.72;;;26.84;30.22
63351;BME280;54336;51.058;17.040;2022-07-06T15:39:02;100450.09;;;26.90;29.58
63351;BME280;54336;51.058;17.040;2022-07-06T15:44:55;100443.28;;;26.44;29.73
63351;BME280;54336;51.058;17.040;2022-07-06T15:50:47;100442.56;;;26.15;30.36
63351;BME280;54336;51.058;17.040;2022-07-06T15:56:39;100440.69;;;26.12;30.67
63351;BME280;54336;51.058;17.040;2022-07-06T16:02:32;100448.97;;;26.15;30.83
63351;BME280;54336;51.058;17.040;2022-07-06T16:08:25;100441.13;;;25.85;30.86
63351;BME280;54336;51.058;17.040;2022-07-06T16:14:34;100438.50;;;25.65;30.72
63351;BME280;54336;51.058;17.040;2022-07-06T16:20:27;100443.09;;;25.71;31.48
63351;BME280;54336;51.058;17.040;2022-07-06T16:26:20;100447.41;;;25.60;30.91
63351;BME280;54336;51.058;17.040;2022-07-06T16:32:13;100443.19;;;25.39;31.21
63351;BME280;54336;51.058;17.040;2022-07-06T16:38:06;100443.06;;;25.30;31.64
63351;BME280;54336;51.058;17.040;2022-07-06T16:43:59;100440.75;;;24.95;31.61
63351;BME280;54336;51.058;17.040;2022-07-06T16:49:51;100430.50;;;24.76;31.49
63351;BME280;54336;51.058;17.040;2022-07-06T16:55:43;100437.28;;;24.91;31.20
63351;BME280;54336;51.058;17.040;2022-07-06T17:01:36;100440.00;;;24.79;31.52
63351;BME280;54336;51.058;17.040;2022-07-06T17:07:28;100440.63;;;24.54;32.32
63351;BME280;54336;51.058;17.040;2022-07-06T17:13:21;100444.38;;;24.31;32.26
63351;BME280;54336;51.058;17.040;2022-07-06T17:19:14;100439.56;;;24.15;32.81
63351;BME280;54336;51.058;17.040;2022-07-06T17:25:08;100456.03;;;23.90;33.04
63351;BME280;54336;51.058;17.040;2022-07-06T17:31:00;100449.63;;;23.73;33.54
63351;BME280;54336;51.058;17.040;2022-07-06T17:36:54;100453.13;;;23.57;33.86
63351;BME280;54336;51.058;17.040;2022-07-06T17:42:46;100457.63;;;23.31;33.80
63351;BME280;54336;51.058;17.040;2022-07-06T17:48:38;100455.09;;;23.17;34.47
63351;BME280;54336;51.058;17.040;2022-07-06T17:54:32;100455.84;;;22.97;34.31
63351;BME280;54336;51.058;17.040;2022-07-06T18:00:24;100454.91;;;22.81;35.12
63351;BME280;54336;51.058;17.040;2022-07-06T18:06:17;100465.44;;;22.46;35.33
63351;BME280;54336;51.058;17.040;2022-07-06T18:12:10;100465.69;;;22.28;35.33
63351;BME280;54336;51.058;17.040;2022-07-06T18:18:03;100482.22;;;22.12;36.16
63351;BME280;54336;51.058;17.040;2022-07-06T18:23:56;100481.31;;;21.88;36.44
63351;BME280;54336;51.058;17.040;2022-07-06T18:29:50;100485.88;;;21.71;36.82
63351;BME280;54336;51.058;17.040;2022-07-06T18:35:46;100486.91;;;21.50;37.13
63351;BME280;54336;51.058;17.040;2022-07-06T18:41:46;100487.53;;;21.31;37.77
63351;BME280;54336;51.058;17.040;2022-07-06T18:47:45;100491.19;;;21.17;38.08
63351;BME280;54336;51.058;17.040;2022-07-06T18:53:45;100497.25;;;21.05;38.94
63351;BME280;54336;51.058;17.040;2022-07-06T18:59:46;100506.53;;;20.88;39.08
63351;BME280;54336;51.058;17.040;2022-07-06T19:05:39;100504.69;;;20.67;39.27
63351;BME280;54336;51.058;17.040;2022-07-06T19:11:33;100514.41;;;20.34;40.18
63351;BME280;54336;51.058;17.040;2022-07-06T19:17:26;100518.53;;;20.01;40.41
63351;BME280;54336;51.058;17.040;2022-07-06T19:23:20;100520.25;;;19.66;42.50
63351;BME280;54336;51.058;17.040;2022-07-06T19:29:13;100529.78;;;19.36;43.29
63351;BME280;54336;51.058;17.040;2022-07-06T19:35:07;100543.66;;;19.11;43.14
63351;BME280;54336;51.058;17.040;2022-07-06T19:41:00;100542.84;;;18.79;45.56
63351;BME280;54336;51.058;17.040;2022-07-06T19:46:52;100549.53;;;18.64;46.06
63351;BME280;54336;51.058;17.040;2022-07-06T19:52:47;100549.50;;;18.46;46.67
63351;BME280;54336;51.058;17.040;2022-07-06T19:58:40;100553.78;;;18.25;47.46
63351;BME280;54336;51.058;17.040;2022-07-06T20:04:33;100556.47;;;18.04;47.26
63351;BME280;54336;51.058;17.040;2022-07-06T20:10:27;100563.84;;;17.82;47.63
63351;BME280;54336;51.058;17.040;2022-07-06T20:16:18;100567.25;;;17.58;48.23
63351;BME280;54336;51.058;17.040;2022-07-06T20:22:11;100569.84;;;17.36;50.55
63351;BME280;54336;51.058;17.040;2022-07-06T20:28:04;100562.25;;;17.23;50.91
63351;BME280;54336;51.058;17.040;2022-07-06T20:33:57;100570.44;;;17.12;51.35
63351;BME280;54336;51.058;17.040;2022-07-06T20:39:50;100561.31;;;17.04;50.84
63351;BME280;54336;51.058;17.040;2022-07-06T20:45:42;100569.50;;;16.90;54.09
63351;BME280;54336;51.058;17.040;2022-07-06T20:51:35;100569.78;;;16.81;54.16
63351;BME280;54336;51.058;17.040;2022-07-06T20:57:28;100563.34;;;16.67;55.04
63351;BME280;54336;51.058;17.040;2022-07-06T21:03:21;100564.72;;;16.50;55.19
63351;BME280;54336;51.058;17.040;2022-07-06T21:09:21;100564.53;;;16.32;56.24
63351;BME280;54336;51.058;17.040;2022-07-06T21:15:12;100562.00;;;16.16;55.75
63351;BME280;54336;51.058;17.040;2022-07-06T21:21:05;100568.53;;;16.04;57.90
63351;BME280;54336;51.058;17.040;2022-07-06T21:26:58;100567.63;;;15.97;57.37
63351;BME280;54336;51.058;17.040;2022-07-06T21:32:50;100561.72;;;15.95;59.12
63351;BME280;54336;51.058;17.040;2022-07-06T21:38:43;100564.06;;;15.93;62.19
63351;BME280;54336;51.058;17.040;2022-07-06T21:44:36;100562.13;;;15.97;62.36
63351;BME280;54336;51.058;17.040;2022-07-06T21:50:29;100557.97;;;16.10;66.21
63351;BME280;54336;51.058;17.040;2022-07-06T21:56:23;100549.59;;;15.99;69.91
63351;BME280;54336;51.058;17.040;2022-07-06T22:02:15;100555.53;;;16.01;69.84
63351;BME280;54336;51.058;17.040;2022-07-06T22:08:08;100564.22;;;15.73;66.77
63351;BME280;54336;51.058;17.040;2022-07-06T22:14:02;100575.44;;;15.38;71.12
63351;BME280;54336;51.058;17.040;2022-07-06T22:19:54;100562.47;;;15.12;72.87
63351;BME280;54336;51.058;17.040;2022-07-06T22:25:50;100565.59;;;14.88;72.05
63351;BME280;54336;51.058;17.040;2022-07-06T22:31:42;100557.78;;;14.67;70.92
63351;BME280;54336;51.058;17.040;2022-07-06T22:37:34;100566.44;;;14.46;69.41
63351;BME280;54336;51.058;17.040;2022-07-06T22:43:32;100549.13;;;14.26;74.67
63351;BME280;54336;51.058;17.040;2022-07-06T22:49:26;100544.38;;;14.04;75.69
63351;BME280;54336;51.058;17.040;2022-07-06T22:55:18;100549.22;;;13.91;73.62
63351;BME280;54336;51.058;17.040;2022-07-06T23:01:13;100562.72;;;13.80;75.32
63351;BME280;54336;51.058;17.040;2022-07-06T23:07:07;100557.28;;;13.65;74.57
63351;BME280;54336;51.058;17.040;2022-07-06T23:13:00;100561.00;;;13.57;75.39
63351;BME280;54336;51.058;17.040;2022-07-06T23:18:53;100567.28;;;13.57;79.35
63351;BME280;54336;51.058;17.040;2022-07-06T23:24:47;100559.06;;;13.57;78.04
63351;BME280;54336;51.058;17.040;2022-07-06T23:30:39;100555.22;;;13.62;78.72
63351;BME280;54336;51.058;17.040;2022-07-06T23:36:31;100560.00;;;13.65;81.09
63351;BME280;54336;51.058;17.040;2022-07-06T23:42:24;100554.38;;;13.77;77.19
63351;BME280;54336;51.058;17.040;2022-07-06T23:48:17;100553.16;;;13.74;79.84
63351;BME280;54336;51.058;17.040;2022-07-06T23:54:11;100552.78;;;13.57;80.60
